Winters Aire Park Airport

CFY4 · 艾伯塔, 加拿大

罗盘
风向 的 风向 160° Winters Aire Park Airport 9/27
风: 7 kt, 3 beaufort

2 kt

7 kt
改变
0 1.000 2.000 3.000 4.000 5.000
OVC 4.800 ft
METAR CYYC 051500Z 16007KT 4SM -SN OVC048 M10/M12 A2978 RMK SN1SC7 SLP155

METAR Winters Aire Park Airport - CFY4

Winters Aire Park Airport是,加拿大中的小机场。 该机场有2条跑道: 9/27 和 16/34. 该领域的国际民航组织标志是CFY4.

这份报告是针对2022年12月5日 08:00, 当地时间在Calgary International Airport进行的。

机场观察

风向为160°,速度为7 kt。

可见度为4 mi。

有乌云密布在4.800 ft的高度。 破损或更高的上限为4.800 ft。

当前天气为光 雪。 温度为-10 °C,阵风为-19 °C。 露点为-12 °C,相对湿度为85%。 海平面上的气压为29,78 inHg (QNH)。

白天

今天,太阳从08:21升起,在16:30降落。 这适用于Winters Aire Park Airport,世界夏令时可能有所不同。 当地时间与世界标准时间之间的时差为-7 小时。 当前,没有夏令时有效。

公司介绍

我们没有关于这个机场的公司信息。

体会

到Vliegles.nl去找飞行课程,跳伞和其他飞行体验。 浏览页面,了解Winters Aire Park Airport附近所有可用的活动。 你也可以使用搜索功能来寻找你所在地附近的特定飞行课程、跳伞或其他飞行体验。

跑道

Id 标题 侧风 逆风 侧风 %
9/27 090°-270° 7 kt 2 kt 94 %
16/34 160°-340° 7 kt 0 %

逆风成分最大的方向会被突出显示,并用于横风计算。 这并不一定意味着这个方向在使用。

乌云

4.800 ft OVC 乌云密布

温度 & 天气

天气 光 雪
温度 -10 °C
露点 -12 °C
相对湿度 85%
风寒 -19 °C
Kp-index 0 (0-9)

评论

SLP155海平面压力为29,99 inHg (29,99 inHg)
SN1SC7

白天

日出
08:23 (1m)
中午
12:26
日落
16:30

小工具

你想在你的网站上有一个关于Winters Aire Park Airport的当前航空天气(METAR)的小部件吗?

显示HTML代码

我们和第三方通过cookies跟踪您在我们网站上的互联网行为。如果你继续,我们认为你同意我们的饼干政策